createdAt,value
2019-02-21T00:02:08.632Z,100067.23
2019-02-21T00:04:34.810Z,100062.70
2019-02-21T00:07:01.110Z,100062.52
2019-02-21T00:09:27.268Z,100066.14
2019-02-21T00:11:53.428Z,100062.98
2019-02-21T00:14:19.627Z,100051.47
2019-02-21T00:16:45.894Z,100055.56
2019-02-21T00:19:12.059Z,100054.36
2019-02-21T00:21:38.350Z,100066.34
2019-02-21T00:24:04.514Z,100061.75
2019-02-21T00:26:30.684Z,100066.46
2019-02-21T00:28:56.870Z,100064.34
2019-02-21T00:31:23.039Z,100074.58
2019-02-21T00:33:49.209Z,100075.55
2019-02-21T00:36:15.421Z,100076.95
2019-02-21T00:38:41.584Z,100073.53
2019-02-21T00:41:07.845Z,100076.69
2019-02-21T00:43:34.035Z,100074.92
2019-02-21T00:46:00.417Z,100083.15
2019-02-21T00:48:26.586Z,100078.30
2019-02-21T00:50:52.772Z,100076.05
2019-02-21T00:53:18.943Z,100077.27
2019-02-21T00:55:45.097Z,100071.80
2019-02-21T00:58:11.386Z,100069.91
2019-02-21T01:00:46.082Z,100079.74
2019-02-21T01:03:05.729Z,100073.69
2019-02-21T01:05:31.937Z,100078.11
2019-02-21T01:07:58.112Z,100073.52
2019-02-21T01:10:24.270Z,100075.52
2019-02-21T01:12:50.574Z,100073.67
2019-02-21T01:15:16.833Z,100079.21
2019-02-21T01:17:43.002Z,100072.50
2019-02-21T01:20:09.491Z,100072.77
2019-02-21T01:22:35.650Z,100074.84
2019-02-21T01:25:01.815Z,100068.20
2019-02-21T01:27:27.997Z,100080.99
2019-02-21T01:29:54.175Z,100074.06
2019-02-21T01:32:20.333Z,100077.57
2019-02-21T01:34:46.523Z,100077.00
2019-02-21T01:37:12.791Z,100084.30
2019-02-21T01:39:38.949Z,100075.61
2019-02-21T01:42:05.239Z,100085.02
2019-02-21T01:44:31.505Z,100084.98
2019-02-21T01:46:57.681Z,100082.09
2019-02-21T01:49:23.862Z,100079.34
2019-02-21T01:51:50.128Z,100087.50
2019-02-21T01:54:16.393Z,100081.58
2019-02-21T01:56:42.888Z,100088.70
2019-02-21T01:59:09.045Z,100097.74
2019-02-21T02:01:35.647Z,100095.28
2019-02-21T02:04:01.850Z,100093.55
2019-02-21T02:06:28.115Z,100094.91
2019-02-21T02:08:54.286Z,100090.41
2019-02-21T02:11:20.521Z,100098.33
2019-02-21T02:13:46.656Z,100107.66
2019-02-21T02:16:12.808Z,100114.19
2019-02-21T02:18:38.999Z,100104.86
2019-02-21T02:21:06.062Z,100111.56
2019-02-21T02:23:32.333Z,100110.33
2019-02-21T02:25:58.518Z,100114.31
2019-02-21T02:28:24.673Z,100115.52
2019-02-21T02:30:50.847Z,100118.22
2019-02-21T02:33:17.039Z,100115.48
2019-02-21T02:35:43.301Z,100121.83
2019-02-21T02:38:09.561Z,100123.98
2019-02-21T02:40:35.750Z,100133.16
2019-02-21T02:43:01.912Z,100134.98
2019-02-21T02:45:28.177Z,100130.86
2019-02-21T02:47:54.364Z,100135.21
2019-02-21T02:50:20.630Z,100132.00
2019-02-21T02:52:46.816Z,100142.59
2019-02-21T02:55:13.023Z,100143.66
2019-02-21T02:57:39.296Z,100145.30
2019-02-21T03:00:11.849Z,100155.06
2019-02-21T03:02:38.064Z,100157.56
2019-02-21T03:05:05.126Z,100154.22
2019-02-21T03:07:31.256Z,100161.70
2019-02-21T03:09:57.440Z,100171.70
2019-02-21T03:12:23.712Z,100175.81
2019-02-21T03:14:49.860Z,100170.55
2019-02-21T03:17:16.059Z,100180.08
2019-02-21T03:19:42.226Z,100177.78
2019-02-21T03:22:08.381Z,100178.52
2019-02-21T03:24:34.860Z,100182.40
2019-02-21T03:27:01.013Z,100182.52
2019-02-21T03:29:27.168Z,100182.69
2019-02-21T03:31:55.917Z,100185.52
2019-02-21T03:34:21.425Z,100191.38
2019-02-21T03:36:47.594Z,100189.06
2019-02-21T03:39:13.870Z,100201.75
2019-02-21T03:41:40.034Z,100204.29
2019-02-21T03:44:06.191Z,100210.67
2019-02-21T03:46:32.379Z,100214.43
2019-02-21T03:48:58.535Z,100212.52
2019-02-21T03:51:24.686Z,100214.02
2019-02-21T03:53:50.996Z,100222.84
2019-02-21T03:56:17.155Z,100218.47
2019-02-21T03:58:43.802Z,100219.68
2019-02-21T04:01:10.130Z,100220.03
2019-02-21T04:03:36.248Z,100216.52
2019-02-21T04:06:02.415Z,100221.13
2019-02-21T04:08:28.711Z,100219.66
2019-02-21T04:10:54.975Z,100224.88
2019-02-21T04:13:21.131Z,100219.39
2019-02-21T04:15:47.429Z,100223.45
2019-02-21T04:18:13.690Z,100228.92
2019-02-21T04:20:39.860Z,100229.11
2019-02-21T04:23:06.155Z,100229.82
2019-02-21T04:25:32.309Z,100234.51
2019-02-21T04:27:58.463Z,100222.94
2019-02-21T04:30:24.653Z,100229.61
2019-02-21T04:32:50.815Z,100227.39
2019-02-21T04:35:17.077Z,100223.80
2019-02-21T04:37:43.403Z,100236.17
2019-02-21T04:40:09.569Z,100234.48
2019-02-21T04:42:35.733Z,100241.69
2019-02-21T04:45:01.940Z,100247.53
2019-02-21T04:47:32.257Z,100254.94
2019-02-21T04:49:58.429Z,100248.08
2019-02-21T04:52:24.626Z,100261.59
2019-02-21T04:54:50.794Z,100265.02
2019-02-21T04:57:17.221Z,100262.05
2019-02-21T04:59:43.414Z,100263.45
2019-02-21T05:02:09.704Z,100264.19
2019-02-21T05:04:35.869Z,100268.93
2019-02-21T05:07:02.231Z,100266.66
2019-02-21T05:09:32.339Z,100268.89
2019-02-21T05:11:58.608Z,100273.94
2019-02-21T05:14:24.798Z,100265.45
2019-02-21T05:16:50.963Z,100276.81
2019-02-21T05:19:17.232Z,100281.23
2019-02-21T05:21:43.438Z,100282.16
2019-02-21T05:24:09.613Z,100283.48
2019-02-21T05:26:37.676Z,100290.73
2019-02-21T05:29:05.774Z,100297.52
2019-02-21T05:31:51.726Z,100303.90
2019-02-21T05:34:28.605Z,100306.13
2019-02-21T05:37:02.684Z,100302.66
2019-02-21T05:39:30.784Z,100312.06
2019-02-21T05:42:16.684Z,100327.73
2019-02-21T05:44:59.681Z,100326.19
2019-02-21T05:47:27.786Z,100336.27
2019-02-21T05:50:10.689Z,100336.30
2019-02-21T05:52:41.301Z,100336.77
2019-02-21T05:55:18.451Z,100344.02
2019-02-21T05:58:03.061Z,100343.58
2019-02-21T06:00:39.726Z,100343.26
2019-02-21T06:03:07.846Z,100350.86
2019-02-21T06:05:41.957Z,100350.48
2019-02-21T06:08:10.057Z,100355.08
2019-02-21T06:10:40.645Z,100370.42
2019-02-21T06:13:08.748Z,100366.78
2019-02-21T06:15:36.719Z,100379.98
2019-02-21T06:18:17.838Z,100373.53
2019-02-21T06:21:04.228Z,100378.88
2019-02-21T06:23:41.134Z,100393.97
2019-02-21T06:26:09.287Z,100387.54
2019-02-21T06:28:37.402Z,100387.22
2019-02-21T06:31:05.500Z,100387.67
2019-02-21T06:33:31.652Z,100394.55
2019-02-21T06:35:57.826Z,100397.30
2019-02-21T06:38:24.038Z,100394.27
2019-02-21T06:40:50.187Z,100407.08
2019-02-21T06:43:16.506Z,100401.03
2019-02-21T06:45:42.787Z,100407.59
2019-02-21T06:48:09.061Z,100408.15
2019-02-21T06:50:35.328Z,100405.31
2019-02-21T06:53:01.524Z,100407.19
2019-02-21T06:55:27.730Z,100416.63
2019-02-21T06:57:54.310Z,100409.83
2019-02-21T07:00:20.510Z,100407.09
2019-02-21T07:02:46.777Z,100406.63
2019-02-21T07:05:12.945Z,100407.08
2019-02-21T07:07:39.136Z,100410.14
2019-02-21T07:10:06.619Z,100410.30
2019-02-21T07:12:32.796Z,100411.94
2019-02-21T07:14:59.002Z,100418.02
2019-02-21T07:17:27.418Z,100415.37
2019-02-21T07:19:53.359Z,100417.91
2019-02-21T07:22:22.379Z,100412.54
2019-02-21T07:24:49.734Z,100413.98
2019-02-21T07:27:15.895Z,100426.22
2019-02-21T07:29:42.549Z,100433.38
2019-02-21T07:32:08.768Z,100433.38
2019-02-21T07:34:34.930Z,100435.94
2019-02-21T07:37:01.229Z,100442.75
2019-02-21T07:39:35.674Z,100434.44
2019-02-21T07:41:55.844Z,100441.03
2019-02-21T07:44:22.262Z,100437.56
2019-02-21T07:46:48.520Z,100430.30
2019-02-21T07:49:14.679Z,100434.97
2019-02-21T07:51:42.798Z,100443.32
2019-02-21T07:54:08.977Z,100435.47
2019-02-21T07:56:42.004Z,100448.56
2019-02-21T07:59:03.774Z,100456.58
2019-02-21T08:01:29.914Z,100468.75
2019-02-21T08:03:56.079Z,100463.86
2019-02-21T08:06:22.391Z,100456.07
2019-02-21T08:08:48.567Z,100450.16
2019-02-21T08:11:14.836Z,100460.39
2019-02-21T08:13:41.136Z,100458.42
2019-02-21T08:16:07.330Z,100462.74
2019-02-21T08:18:33.494Z,100455.06
2019-02-21T08:20:59.802Z,100455.23
2019-02-21T08:23:26.071Z,100454.69
2019-02-21T08:25:52.242Z,100456.08
2019-02-21T08:28:19.260Z,100463.51
2019-02-21T08:30:45.445Z,100464.89
2019-02-21T08:33:13.535Z,100470.31
2019-02-21T08:35:39.747Z,100479.81
2019-02-21T08:38:06.035Z,100486.73
2019-02-21T08:40:32.326Z,100496.18
2019-02-21T08:42:58.639Z,100497.09
2019-02-21T08:45:24.804Z,100492.02
2019-02-21T08:47:50.975Z,100484.34
2019-02-21T08:50:17.182Z,100482.17
2019-02-21T08:52:43.457Z,100479.80
2019-02-21T08:55:09.635Z,100481.11
2019-02-21T08:57:35.930Z,100485.78
2019-02-21T09:00:03.493Z,100488.56
2019-02-21T09:02:29.665Z,100487.36
2019-02-21T09:04:55.868Z,100491.03
2019-02-21T09:07:22.032Z,100489.77
2019-02-21T09:09:48.199Z,100481.19
2019-02-21T09:12:14.556Z,100496.80
2019-02-21T09:14:40.723Z,100499.96
2019-02-21T09:17:06.883Z,100489.92
2019-02-21T09:19:33.199Z,100487.76
2019-02-21T09:21:59.357Z,100489.11
2019-02-21T09:24:38.117Z,100474.59
2019-02-21T09:26:53.738Z,100480.88
2019-02-21T09:29:20.014Z,100472.91
2019-02-21T09:31:46.281Z,100476.90
2019-02-21T09:34:20.892Z,100482.02
2019-02-21T09:36:40.553Z,100487.75
2019-02-21T09:39:06.834Z,100483.48
2019-02-21T09:41:33.147Z,100482.78
2019-02-21T09:43:59.318Z,100483.63
2019-02-21T09:46:25.498Z,100484.69
2019-02-21T09:48:51.701Z,100484.19
2019-02-21T09:51:18.405Z,100483.38
2019-02-21T09:53:44.837Z,100480.87
2019-02-21T09:56:11.055Z,100471.09
2019-02-21T09:58:37.324Z,100472.25
2019-02-21T10:01:03.492Z,100477.19
2019-02-21T10:03:29.812Z,100474.95
2019-02-21T10:05:56.082Z,100481.89
2019-02-21T10:08:22.366Z,100481.06
2019-02-21T10:10:48.665Z,100470.41
2019-02-21T10:13:14.879Z,100463.73
2019-02-21T10:15:41.053Z,100460.55
2019-02-21T10:18:07.268Z,100461.64
2019-02-21T10:20:33.441Z,100464.75
2019-02-21T10:23:01.279Z,100465.80
2019-02-21T10:25:29.393Z,100454.93
2019-02-21T10:27:55.551Z,100449.47
2019-02-21T10:30:22.349Z,100450.19
2019-02-21T10:32:48.559Z,100448.64
2019-02-21T10:35:14.734Z,100447.40
2019-02-21T10:37:41.033Z,100442.13
2019-02-21T10:40:09.640Z,100436.59
2019-02-21T10:42:35.842Z,100430.59
2019-02-21T10:45:03.523Z,100431.09
2019-02-21T10:47:30.044Z,100421.73
2019-02-21T10:49:58.042Z,100414.33
2019-02-21T10:52:27.229Z,100403.27
2019-02-21T10:54:53.557Z,100406.70
2019-02-21T10:57:19.851Z,100395.01
2019-02-21T10:59:47.131Z,100393.46
2019-02-21T11:02:13.541Z,100382.70
2019-02-21T11:04:42.082Z,100385.86
2019-02-21T11:07:07.779Z,100372.63
2019-02-21T11:09:33.985Z,100361.11
2019-02-21T11:12:00.154Z,100357.51
2019-02-21T11:14:26.359Z,100356.49
2019-02-21T11:16:52.665Z,100357.08
2019-02-21T11:19:18.834Z,100362.86
2019-02-21T11:21:45.003Z,100356.80
2019-02-21T11:24:11.202Z,100350.16
2019-02-21T11:26:37.380Z,100357.42
2019-02-21T11:29:03.548Z,100349.79
2019-02-21T11:31:29.933Z,100341.30
2019-02-21T11:33:56.245Z,100341.30
2019-02-21T11:36:22.394Z,100337.76
2019-02-21T11:38:48.703Z,100340.09
2019-02-21T11:41:14.866Z,100333.18
2019-02-21T11:43:41.043Z,100335.19
2019-02-21T11:46:07.233Z,100324.87
2019-02-21T11:48:33.408Z,100315.86
2019-02-21T11:50:59.568Z,100321.78
2019-02-21T11:53:25.855Z,100317.10
2019-02-21T11:55:52.010Z,100305.39
2019-02-21T11:58:18.165Z,100311.84
2019-02-21T12:00:44.468Z,100317.27
2019-02-21T12:03:10.630Z,100308.81
2019-02-21T12:05:36.930Z,100303.03
2019-02-21T12:08:03.116Z,100296.09
2019-02-21T12:10:29.287Z,100288.48
2019-02-21T12:12:55.443Z,100301.73
2019-02-21T12:15:21.848Z,100304.31
2019-02-21T12:17:48.113Z,100301.34
2019-02-21T12:20:18.429Z,100293.53
2019-02-21T12:22:44.616Z,100284.70
2019-02-21T12:25:21.514Z,100293.40
2019-02-21T12:27:49.606Z,100286.67
2019-02-21T12:30:17.176Z,100292.66
2019-02-21T12:32:43.328Z,100276.36
2019-02-21T12:35:09.626Z,100275.47
2019-02-21T12:37:35.787Z,100281.58
2019-02-21T12:40:02.143Z,100276.52
2019-02-21T12:42:28.341Z,100270.52
2019-02-21T12:44:54.497Z,100270.95
2019-02-21T12:47:20.651Z,100277.16
2019-02-21T12:49:46.939Z,100266.41
2019-02-21T12:52:13.099Z,100272.06
2019-02-21T12:54:39.248Z,100268.67
2019-02-21T12:57:05.457Z,100265.73
2019-02-21T12:59:31.605Z,100269.09
2019-02-21T13:01:57.926Z,100261.02
2019-02-21T13:04:24.155Z,100263.98
2019-02-21T13:06:50.313Z,100262.50
2019-02-21T13:09:16.467Z,100265.34
2019-02-21T13:11:42.664Z,100267.06
2019-02-21T13:14:08.837Z,100258.73
2019-02-21T13:16:35.133Z,100249.15
2019-02-21T13:19:01.326Z,100254.66
2019-02-21T13:21:27.477Z,100254.41
2019-02-21T13:23:53.659Z,100252.55
2019-02-21T13:26:20.041Z,100255.41
2019-02-21T13:28:46.328Z,100252.75
2019-02-21T13:31:12.477Z,100251.27
2019-02-21T13:33:39.062Z,100251.23
2019-02-21T13:36:10.896Z,100245.69
2019-02-21T13:38:37.171Z,100245.11
2019-02-21T13:41:03.371Z,100249.16
2019-02-21T13:43:29.633Z,100243.84
2019-02-21T13:45:55.795Z,100241.95
2019-02-21T13:48:21.993Z,100244.17
2019-02-21T13:50:48.157Z,100236.45
2019-02-21T13:53:14.308Z,100237.28
2019-02-21T13:55:40.508Z,100237.97
2019-02-21T13:58:06.767Z,100236.34
2019-02-21T14:00:33.323Z,100238.33
2019-02-21T14:02:59.509Z,100235.92
2019-02-21T14:05:25.660Z,100229.12
2019-02-21T14:07:51.930Z,100230.14
2019-02-21T14:10:18.127Z,100227.94
2019-02-21T14:12:44.294Z,100224.22
2019-02-21T14:15:15.384Z,100214.84
2019-02-21T14:17:41.583Z,100220.13
2019-02-21T14:20:08.044Z,100218.03
2019-02-21T14:22:34.201Z,100206.93
2019-02-21T14:25:00.490Z,100202.48
2019-02-21T14:27:26.657Z,100200.08
2019-02-21T14:29:52.810Z,100199.76
2019-02-21T14:32:19.105Z,100202.38
2019-02-21T14:34:45.270Z,100196.43
2019-02-21T14:37:11.426Z,100202.03
2019-02-21T14:39:37.607Z,100195.29
2019-02-21T14:42:04.531Z,100196.80
2019-02-21T14:44:30.968Z,100198.89
2019-02-21T14:46:57.164Z,100200.86
2019-02-21T14:49:25.656Z,100203.61
2019-02-21T14:51:51.381Z,100195.56
2019-02-21T14:54:17.697Z,100196.22
2019-02-21T14:56:43.849Z,100192.17
2019-02-21T14:59:10.116Z,100193.29
2019-02-21T15:01:36.675Z,100186.34
2019-02-21T15:04:02.840Z,100190.80
2019-02-21T15:06:29.058Z,100190.76
2019-02-21T15:08:55.222Z,100196.33
2019-02-21T15:11:21.482Z,100189.20
2019-02-21T15:13:47.735Z,100191.49
2019-02-21T15:16:13.926Z,100188.12
2019-02-21T15:18:40.145Z,100190.70
2019-02-21T15:21:06.310Z,100185.61
2019-02-21T15:23:32.595Z,100185.69
2019-02-21T15:25:58.756Z,100178.00
2019-02-21T15:28:24.910Z,100185.20
2019-02-21T15:30:51.096Z,100185.33
2019-02-21T15:33:17.254Z,100192.32
2019-02-21T15:35:43.412Z,100189.63
2019-02-21T15:38:19.561Z,100194.78
2019-02-21T15:40:37.689Z,100194.48
2019-02-21T15:43:05.389Z,100191.73
2019-02-21T15:45:31.769Z,100192.35
2019-02-21T15:47:57.950Z,100200.20
2019-02-21T15:50:24.124Z,100202.53
2019-02-21T15:52:52.223Z,100198.42
2019-02-21T15:55:19.590Z,100210.33
2019-02-21T15:57:45.879Z,100209.52
2019-02-21T16:00:14.777Z,100213.27
2019-02-21T16:02:40.933Z,100216.02
2019-02-21T16:05:08.009Z,100215.59
2019-02-21T16:07:34.215Z,100212.69
2019-02-21T16:10:00.486Z,100219.63
2019-02-21T16:12:26.809Z,100221.44
2019-02-21T16:14:53.168Z,100222.09
2019-02-21T16:17:19.446Z,100226.87
2019-02-21T16:19:46.650Z,100226.95
2019-02-21T16:22:12.965Z,100225.66
2019-02-21T16:24:39.528Z,100232.65
2019-02-21T16:27:05.800Z,100235.67
2019-02-21T16:29:32.005Z,100236.55
2019-02-21T16:31:58.171Z,100238.97
2019-02-21T16:34:24.354Z,100238.32
2019-02-21T16:36:50.542Z,100245.58
2019-02-21T16:39:16.815Z,100245.08
2019-02-21T16:41:44.380Z,100249.20
2019-02-21T16:44:10.979Z,100252.86
2019-02-21T16:46:37.150Z,100252.73
2019-02-21T16:49:03.439Z,100242.49
2019-02-21T16:51:29.755Z,100248.31
2019-02-21T16:53:55.924Z,100254.08
2019-02-21T16:56:22.119Z,100249.45
2019-02-21T16:58:48.304Z,100249.45
2019-02-21T17:01:14.880Z,100247.11
2019-02-21T17:03:41.032Z,100252.05
2019-02-21T17:06:07.326Z,100248.10
2019-02-21T17:08:33.494Z,100249.55
2019-02-21T17:10:59.659Z,100249.80
2019-02-21T17:13:25.955Z,100249.39
2019-02-21T17:15:52.123Z,100249.30
2019-02-21T17:18:18.393Z,100251.59
2019-02-21T17:20:45.685Z,100248.40
2019-02-21T17:23:22.290Z,100243.74
2019-02-21T17:25:40.037Z,100244.61
2019-02-21T17:28:06.255Z,100239.31
2019-02-21T17:30:32.422Z,100238.31
2019-02-21T17:32:58.589Z,100242.49
2019-02-21T17:35:24.907Z,100237.50
2019-02-21T17:37:51.102Z,100233.17
2019-02-21T17:40:23.847Z,100237.34
2019-02-21T17:42:50.040Z,100234.14
2019-02-21T17:45:16.342Z,100226.55
2019-02-21T17:47:42.515Z,100227.92
2019-02-21T17:50:11.104Z,100229.06
2019-02-21T17:52:37.316Z,100228.77
2019-02-21T17:55:06.069Z,100234.84
2019-02-21T17:57:32.276Z,100227.63
2019-02-21T17:59:58.441Z,100230.90
2019-02-21T18:02:24.723Z,100237.56
2019-02-21T18:04:51.049Z,100239.83
2019-02-21T18:07:17.221Z,100235.48
2019-02-21T18:09:43.391Z,100235.73
2019-02-21T18:12:09.579Z,100236.42
2019-02-21T18:14:35.849Z,100235.42
2019-02-21T18:17:03.030Z,100241.70
2019-02-21T18:19:29.239Z,100235.80
2019-02-21T18:21:56.477Z,100237.92
2019-02-21T18:24:22.648Z,100227.31
2019-02-21T18:26:48.847Z,100233.69
2019-02-21T18:29:15.157Z,100231.02
2019-02-21T18:31:41.427Z,100223.98
2019-02-21T18:34:07.628Z,100228.53
2019-02-21T18:36:33.794Z,100226.12
2019-02-21T18:39:00.078Z,100231.50
2019-02-21T18:41:26.378Z,100231.77
2019-02-21T18:43:52.647Z,100231.86
2019-02-21T18:46:18.813Z,100226.36
2019-02-21T18:48:45.010Z,100223.39
2019-02-21T18:51:11.176Z,100224.27
2019-02-21T18:53:37.356Z,100230.78
2019-02-21T18:56:04.119Z,100230.05
2019-02-21T18:58:30.375Z,100234.35
2019-02-21T19:00:56.604Z,100238.47
2019-02-21T19:03:22.982Z,100237.80
2019-02-21T19:05:49.262Z,100239.45
2019-02-21T19:08:15.449Z,100236.18
2019-02-21T19:10:41.749Z,100243.28
2019-02-21T19:13:08.383Z,100242.67
2019-02-21T19:15:35.147Z,100245.66
2019-02-21T19:18:01.482Z,100242.70
2019-02-21T19:20:27.743Z,100239.45
2019-02-21T19:22:54.053Z,100245.03
2019-02-21T19:25:20.340Z,100240.29
2019-02-21T19:27:46.604Z,100251.38
2019-02-21T19:30:28.498Z,100244.45
2019-02-21T19:32:54.789Z,100240.23
2019-02-21T19:35:22.779Z,100256.38
2019-02-21T19:37:48.970Z,100249.12
2019-02-21T19:40:15.137Z,100251.23
2019-02-21T19:42:41.300Z,100248.93
2019-02-21T19:45:08.401Z,100241.69
2019-02-21T19:47:34.966Z,100245.97
2019-02-21T19:50:01.237Z,100248.56
2019-02-21T19:52:27.471Z,100241.53
2019-02-21T19:54:53.740Z,100250.66
2019-02-21T19:57:19.915Z,100244.84
2019-02-21T19:59:46.117Z,100249.42
2019-02-21T20:02:12.585Z,100247.78
2019-02-21T20:04:38.855Z,100246.05
2019-02-21T20:07:05.043Z,100241.97
2019-02-21T20:09:31.212Z,100239.45
2019-02-21T20:11:57.379Z,100240.57
2019-02-21T20:14:23.679Z,100234.11
2019-02-21T20:16:49.949Z,100239.93
2019-02-21T20:19:16.121Z,100243.66
2019-02-21T20:21:42.322Z,100235.67
2019-02-21T20:24:09.562Z,100235.15
2019-02-21T20:26:35.733Z,100230.32
2019-02-21T20:29:02.043Z,100232.95
2019-02-21T20:31:28.304Z,100230.37
2019-02-21T20:33:54.489Z,100231.39
2019-02-21T20:36:20.912Z,100233.75
2019-02-21T20:38:47.495Z,100225.72
2019-02-21T20:41:13.781Z,100229.94
2019-02-21T20:43:40.007Z,100231.09
2019-02-21T20:46:06.236Z,100227.46
2019-02-21T20:48:35.263Z,100228.67
2019-02-21T20:51:01.881Z,100229.31
2019-02-21T20:53:28.232Z,100228.03
2019-02-21T20:55:54.507Z,100225.42
2019-02-21T20:58:20.792Z,100221.34
2019-02-21T21:00:46.952Z,100224.84
2019-02-21T21:03:13.238Z,100222.88
2019-02-21T21:05:39.583Z,100218.51
2019-02-21T21:08:05.749Z,100224.05
2019-02-21T21:10:31.923Z,100222.07
2019-02-21T21:12:58.256Z,100220.00
2019-02-21T21:15:24.429Z,100217.56
2019-02-21T21:17:50.685Z,100219.11
2019-02-21T21:20:17.553Z,100214.13
2019-02-21T21:22:44.041Z,100218.75
2019-02-21T21:25:12.979Z,100205.20
2019-02-21T21:27:39.153Z,100212.23
2019-02-21T21:30:08.422Z,100213.39
2019-02-21T21:32:34.692Z,100210.64
2019-02-21T21:35:01.016Z,100210.47
2019-02-21T21:37:27.221Z,100218.61
2019-02-21T21:39:53.449Z,100213.05
2019-02-21T21:42:19.649Z,100210.16
2019-02-21T21:44:45.821Z,100204.61
2019-02-21T21:47:11.984Z,100211.89
2019-02-21T21:49:38.199Z,100212.33
2019-02-21T21:52:04.365Z,100205.65
2019-02-21T21:54:30.522Z,100204.67
2019-02-21T21:56:56.828Z,100210.16
2019-02-21T21:59:22.997Z,100204.34
2019-02-21T22:01:49.290Z,100202.59
2019-02-21T22:04:15.482Z,100208.53
2019-02-21T22:06:41.646Z,100207.36
2019-02-21T22:09:07.917Z,100205.42
2019-02-21T22:11:34.243Z,100209.34
2019-02-21T22:14:00.443Z,100209.53
2019-02-21T22:16:26.714Z,100210.25
2019-02-21T22:18:52.964Z,100200.46
2019-02-21T22:21:19.257Z,100198.04
2019-02-21T22:23:45.571Z,100198.27
2019-02-21T22:26:11.954Z,100200.69
2019-02-21T22:28:38.141Z,100199.83
2019-02-21T22:31:04.432Z,100200.03
2019-02-21T22:33:30.764Z,100198.08
2019-02-21T22:35:57.068Z,100195.55
2019-02-21T22:38:23.376Z,100191.80
2019-02-21T22:40:49.706Z,100186.13
2019-02-21T22:43:15.903Z,100186.86
2019-02-21T22:45:42.204Z,100186.67
2019-02-21T22:48:08.522Z,100186.45
2019-02-21T22:50:34.812Z,100183.58
2019-02-21T22:53:01.100Z,100181.67
2019-02-21T22:55:27.530Z,100176.94
2019-02-21T22:57:53.837Z,100179.23
2019-02-21T23:00:56.087Z,100179.35
2019-02-21T23:03:26.237Z,100171.90
2019-02-21T23:06:21.929Z,100162.90
2019-02-21T23:08:52.486Z,100169.32
2019-02-21T23:11:18.773Z,100160.70
2019-02-21T23:13:45.399Z,100167.36
2019-02-21T23:16:11.703Z,100153.77
2019-02-21T23:18:37.991Z,100158.59
2019-02-21T23:21:04.320Z,100153.13
2019-02-21T23:23:31.097Z,100149.52
2019-02-21T23:25:57.377Z,100146.88
2019-02-21T23:28:23.698Z,100139.06
2019-02-21T23:30:50.328Z,100135.78
2019-02-21T23:33:16.606Z,100135.52
2019-02-21T23:35:42.804Z,100133.41
2019-02-21T23:38:08.969Z,100134.34
2019-02-21T23:40:37.091Z,100122.44
2019-02-21T23:43:03.460Z,100118.97
2019-02-21T23:45:29.712Z,100118.67
2019-02-21T23:47:55.869Z,100121.63
2019-02-21T23:50:22.061Z,100111.09
2019-02-21T23:52:48.227Z,100106.08
2019-02-21T23:55:14.377Z,100107.38
2019-02-21T23:57:40.589Z,100101.47
